sensor_id;sensor_type;location;lat;lon;timestamp;P1;durP1;ratioP1;P2;durP2;ratioP2
69706;SDS011;56975;55.726;37.566;2023-07-22T00:00:00;5.1;;;1.8;;
69706;SDS011;56975;55.726;37.566;2023-07-22T00:05:00;5.9;;;2.0;;
69706;SDS011;56975;55.726;37.566;2023-07-22T00:10:00;6.0;;;2.1;;
69706;SDS011;56975;55.726;37.566;2023-07-22T00:15:00;5.4;;;1.8;;
69706;SDS011;56975;55.726;37.566;2023-07-22T00:20:00;5.0;;;1.9;;
69706;SDS011;56975;55.726;37.566;2023-07-22T00:25:00;5.4;;;2.0;;
69706;SDS011;56975;55.726;37.566;2023-07-22T00:30:00;4.9;;;1.9;;
69706;SDS011;56975;55.726;37.566;2023-07-22T00:35:00;5.1;;;1.7;;
69706;SDS011;56975;55.726;37.566;2023-07-22T00:40:01;8.3;;;2.2;;
69706;SDS011;56975;55.726;37.566;2023-07-22T00:45:00;7.1;;;2.0;;
69706;SDS011;56975;55.726;37.566;2023-07-22T00:50:00;6.1;;;1.5;;
69706;SDS011;56975;55.726;37.566;2023-07-22T00:55:00;9.6;;;2.4;;
69706;SDS011;56975;55.726;37.566;2023-07-22T01:00:00;4.5;;;1.8;;
69706;SDS011;56975;55.726;37.566;2023-07-22T01:05:00;5.9;;;2.1;;
69706;SDS011;56975;55.726;37.566;2023-07-22T01:10:00;5.4;;;1.6;;
69706;SDS011;56975;55.726;37.566;2023-07-22T01:15:03;5.8;;;1.9;;
69706;SDS011;56975;55.726;37.566;2023-07-22T01:20:00;5.8;;;2.2;;
69706;SDS011;56975;55.726;37.566;2023-07-22T01:25:00;4.1;;;1.6;;
69706;SDS011;56975;55.726;37.566;2023-07-22T01:30:00;7.9;;;2.1;;
69706;SDS011;56975;55.726;37.566;2023-07-22T01:35:17;7.2;;;1.5;;
69706;SDS011;56975;55.726;37.566;2023-07-22T01:40:00;4.6;;;2.0;;
69706;SDS011;56975;55.726;37.566;2023-07-22T01:45:00;4.3;;;1.7;;
69706;SDS011;56975;55.726;37.566;2023-07-22T01:50:00;6.0;;;1.8;;
69706;SDS011;56975;55.726;37.566;2023-07-22T01:55:00;6.2;;;1.8;;
69706;SDS011;56975;55.726;37.566;2023-07-22T02:00:00;4.1;;;2.1;;
69706;SDS011;56975;55.726;37.566;2023-07-22T02:05:00;5.6;;;1.8;;
69706;SDS011;56975;55.726;37.566;2023-07-22T02:10:00;4.1;;;1.6;;
69706;SDS011;56975;55.726;37.566;2023-07-22T02:15:00;4.9;;;1.9;;
69706;SDS011;56975;55.726;37.566;2023-07-22T02:20:00;4.0;;;1.7;;
69706;SDS011;56975;55.726;37.566;2023-07-22T02:25:00;4.8;;;2.0;;
69706;SDS011;56975;55.726;37.566;2023-07-22T02:30:00;6.7;;;1.5;;
69706;SDS011;56975;55.726;37.566;2023-07-22T02:35:00;5.1;;;1.5;;
69706;SDS011;56975;55.726;37.566;2023-07-22T02:40:00;3.8;;;1.5;;
69706;SDS011;56975;55.726;37.566;2023-07-22T02:45:00;5.3;;;2.0;;
69706;SDS011;56975;55.726;37.566;2023-07-22T02:50:00;4.9;;;1.9;;
69706;SDS011;56975;55.726;37.566;2023-07-22T02:55:08;6.5;;;2.0;;
69706;SDS011;56975;55.726;37.566;2023-07-22T03:00:00;5.7;;;1.7;;
69706;SDS011;56975;55.726;37.566;2023-07-22T03:05:00;5.4;;;1.8;;
69706;SDS011;56975;55.726;37.566;2023-07-22T03:10:00;10.1;;;2.3;;
69706;SDS011;56975;55.726;37.566;2023-07-22T03:15:00;4.3;;;1.4;;
69706;SDS011;56975;55.726;37.566;2023-07-22T03:20:00;3.5;;;1.7;;
69706;SDS011;56975;55.726;37.566;2023-07-22T03:25:00;5.1;;;1.5;;
69706;SDS011;56975;55.726;37.566;2023-07-22T03:30:00;7.0;;;1.8;;
69706;SDS011;56975;55.726;37.566;2023-07-22T03:35:00;4.0;;;1.3;;
69706;SDS011;56975;55.726;37.566;2023-07-22T03:40:00;4.3;;;1.5;;
69706;SDS011;56975;55.726;37.566;2023-07-22T03:45:00;4.1;;;1.5;;
69706;SDS011;56975;55.726;37.566;2023-07-22T03:50:00;4.8;;;1.5;;
69706;SDS011;56975;55.726;37.566;2023-07-22T03:55:00;2.6;;;1.3;;
69706;SDS011;56975;55.726;37.566;2023-07-22T04:00:00;3.6;;;1.4;;
69706;SDS011;56975;55.726;37.566;2023-07-22T04:05:00;5.2;;;1.6;;
69706;SDS011;56975;55.726;37.566;2023-07-22T04:10:00;4.3;;;1.9;;
69706;SDS011;56975;55.726;37.566;2023-07-22T04:15:00;3.3;;;1.4;;
69706;SDS011;56975;55.726;37.566;2023-07-22T04:20:00;4.2;;;1.4;;
69706;SDS011;56975;55.726;37.566;2023-07-22T04:25:00;5.5;;;1.6;;
69706;SDS011;56975;55.726;37.566;2023-07-22T04:30:00;5.1;;;1.6;;
69706;SDS011;56975;55.726;37.566;2023-07-22T04:35:00;4.2;;;1.7;;
69706;SDS011;56975;55.726;37.566;2023-07-22T04:40:00;4.0;;;1.3;;
69706;SDS011;56975;55.726;37.566;2023-07-22T04:45:00;4.4;;;1.3;;
69706;SDS011;56975;55.726;37.566;2023-07-22T04:50:00;3.4;;;1.4;;
69706;SDS011;56975;55.726;37.566;2023-07-22T04:55:00;3.1;;;1.2;;
69706;SDS011;56975;55.726;37.566;2023-07-22T05:00:00;5.1;;;1.4;;
69706;SDS011;56975;55.726;37.566;2023-07-22T05:05:00;5.4;;;1.2;;
69706;SDS011;56975;55.726;37.566;2023-07-22T05:10:00;3.5;;;1.7;;
69706;SDS011;56975;55.726;37.566;2023-07-22T05:15:00;6.5;;;1.2;;
69706;SDS011;56975;55.726;37.566;2023-07-22T05:20:00;4.1;;;1.3;;
69706;SDS011;56975;55.726;37.566;2023-07-22T05:25:00;4.0;;;1.4;;
69706;SDS011;56975;55.726;37.566;2023-07-22T05:30:00;3.3;;;1.3;;
69706;SDS011;56975;55.726;37.566;2023-07-22T05:35:00;4.5;;;1.3;;
69706;SDS011;56975;55.726;37.566;2023-07-22T05:40:00;3.0;;;1.1;;
69706;SDS011;56975;55.726;37.566;2023-07-22T05:45:01;2.4;;;1.0;;
69706;SDS011;56975;55.726;37.566;2023-07-22T05:50:00;4.2;;;1.1;;
69706;SDS011;56975;55.726;37.566;2023-07-22T05:55:00;2.1;;;0.8;;
69706;SDS011;56975;55.726;37.566;2023-07-22T06:00:00;4.0;;;1.1;;
69706;SDS011;56975;55.726;37.566;2023-07-22T06:05:00;3.2;;;1.4;;
69706;SDS011;56975;55.726;37.566;2023-07-22T06:10:00;6.9;;;1.0;;
69706;SDS011;56975;55.726;37.566;2023-07-22T06:15:00;3.0;;;1.1;;
69706;SDS011;56975;55.726;37.566;2023-07-22T06:20:00;2.7;;;1.0;;
69706;SDS011;56975;55.726;37.566;2023-07-22T06:25:00;4.2;;;1.1;;
69706;SDS011;56975;55.726;37.566;2023-07-22T06:30:00;4.6;;;1.5;;
69706;SDS011;56975;55.726;37.566;2023-07-22T06:35:00;3.6;;;1.3;;
69706;SDS011;56975;55.726;37.566;2023-07-22T06:40:00;4.1;;;1.1;;
69706;SDS011;56975;55.726;37.566;2023-07-22T06:45:00;5.1;;;1.2;;
69706;SDS011;56975;55.726;37.566;2023-07-22T06:50:00;3.5;;;1.0;;
69706;SDS011;56975;55.726;37.566;2023-07-22T06:55:00;4.4;;;1.3;;
69706;SDS011;56975;55.726;37.566;2023-07-22T07:00:00;4.9;;;1.4;;
69706;SDS011;56975;55.726;37.566;2023-07-22T07:05:00;3.6;;;0.9;;
69706;SDS011;56975;55.726;37.566;2023-07-22T07:10:00;3.8;;;0.9;;
69706;SDS011;56975;55.726;37.566;2023-07-22T07:15:00;3.0;;;1.3;;
69706;SDS011;56975;55.726;37.566;2023-07-22T07:20:00;3.2;;;1.3;;
69706;SDS011;56975;55.726;37.566;2023-07-22T07:25:00;2.0;;;0.9;;
69706;SDS011;56975;55.726;37.566;2023-07-22T07:30:00;2.8;;;1.1;;
69706;SDS011;56975;55.726;37.566;2023-07-22T07:35:00;4.5;;;2.2;;
69706;SDS011;56975;55.726;37.566;2023-07-22T07:40:00;3.2;;;1.1;;
69706;SDS011;56975;55.726;37.566;2023-07-22T07:45:00;3.1;;;1.1;;
69706;SDS011;56975;55.726;37.566;2023-07-22T07:50:00;7.4;;;1.0;;
69706;SDS011;56975;55.726;37.566;2023-07-22T07:55:00;2.6;;;0.9;;
69706;SDS011;56975;55.726;37.566;2023-07-22T08:00:00;3.2;;;0.9;;
69706;SDS011;56975;55.726;37.566;2023-07-22T08:05:00;3.3;;;0.9;;
69706;SDS011;56975;55.726;37.566;2023-07-22T08:10:00;5.0;;;1.0;;
69706;SDS011;56975;55.726;37.566;2023-07-22T08:15:00;4.8;;;1.1;;
69706;SDS011;56975;55.726;37.566;2023-07-22T08:20:00;5.3;;;1.4;;
69706;SDS011;56975;55.726;37.566;2023-07-22T08:25:00;5.1;;;1.1;;
69706;SDS011;56975;55.726;37.566;2023-07-22T08:30:00;3.7;;;0.8;;
69706;SDS011;56975;55.726;37.566;2023-07-22T08:35:00;3.5;;;0.8;;
69706;SDS011;56975;55.726;37.566;2023-07-22T08:40:00;2.8;;;1.0;;
69706;SDS011;56975;55.726;37.566;2023-07-22T08:45:00;4.0;;;1.1;;
69706;SDS011;56975;55.726;37.566;2023-07-22T08:50:01;3.2;;;0.8;;
69706;SDS011;56975;55.726;37.566;2023-07-22T08:55:00;1.9;;;0.9;;
69706;SDS011;56975;55.726;37.566;2023-07-22T09:00:00;2.0;;;0.6;;
69706;SDS011;56975;55.726;37.566;2023-07-22T09:05:00;2.8;;;1.0;;
69706;SDS011;56975;55.726;37.566;2023-07-22T09:10:00;1.8;;;0.7;;
69706;SDS011;56975;55.726;37.566;2023-07-22T09:15:00;5.9;;;1.0;;
69706;SDS011;56975;55.726;37.566;2023-07-22T09:20:00;3.2;;;0.7;;
69706;SDS011;56975;55.726;37.566;2023-07-22T09:30:00;2.3;;;0.7;;
69706;SDS011;56975;55.726;37.566;2023-07-22T09:35:00;2.9;;;0.7;;
69706;SDS011;56975;55.726;37.566;2023-07-22T09:40:00;2.6;;;1.0;;
69706;SDS011;56975;55.726;37.566;2023-07-22T09:45:00;4.7;;;1.1;;
69706;SDS011;56975;55.726;37.566;2023-07-22T09:50:00;5.6;;;1.1;;
69706;SDS011;56975;55.726;37.566;2023-07-22T09:55:00;2.1;;;0.8;;
69706;SDS011;56975;55.726;37.566;2023-07-22T10:00:00;3.5;;;0.8;;
69706;SDS011;56975;55.726;37.566;2023-07-22T10:05:00;1.8;;;0.7;;
69706;SDS011;56975;55.726;37.566;2023-07-22T10:10:00;3.1;;;0.7;;
69706;SDS011;56975;55.726;37.566;2023-07-22T10:15:00;2.4;;;0.7;;
69706;SDS011;56975;55.726;37.566;2023-07-22T10:20:01;4.2;;;1.1;;
69706;SDS011;56975;55.726;37.566;2023-07-22T10:25:00;5.4;;;1.2;;
69706;SDS011;56975;55.726;37.566;2023-07-22T10:30:00;4.3;;;0.8;;
69706;SDS011;56975;55.726;37.566;2023-07-22T10:35:00;3.5;;;0.9;;
69706;SDS011;56975;55.726;37.566;2023-07-22T10:40:00;5.5;;;1.0;;
69706;SDS011;56975;55.726;37.566;2023-07-22T10:45:00;2.2;;;0.8;;
69706;SDS011;56975;55.726;37.566;2023-07-22T10:50:05;2.4;;;0.9;;
69706;SDS011;56975;55.726;37.566;2023-07-22T10:55:00;3.4;;;1.1;;
69706;SDS011;56975;55.726;37.566;2023-07-22T11:00:00;2.8;;;0.8;;
69706;SDS011;56975;55.726;37.566;2023-07-22T11:05:02;3.2;;;0.8;;
69706;SDS011;56975;55.726;37.566;2023-07-22T11:15:02;6.1;;;1.1;;
69706;SDS011;56975;55.726;37.566;2023-07-22T11:20:00;3.9;;;0.9;;
69706;SDS011;56975;55.726;37.566;2023-07-22T11:25:00;2.1;;;0.7;;
69706;SDS011;56975;55.726;37.566;2023-07-22T11:30:02;2.4;;;0.7;;
69706;SDS011;56975;55.726;37.566;2023-07-22T11:35:00;5.3;;;1.3;;
69706;SDS011;56975;55.726;37.566;2023-07-22T11:40:00;3.0;;;0.9;;
69706;SDS011;56975;55.726;37.566;2023-07-22T11:45:00;5.9;;;1.8;;
69706;SDS011;56975;55.726;37.566;2023-07-22T11:50:00;5.2;;;1.1;;
69706;SDS011;56975;55.726;37.566;2023-07-22T11:55:01;1.8;;;0.8;;
69706;SDS011;56975;55.726;37.566;2023-07-22T12:00:00;1.5;;;0.8;;
69706;SDS011;56975;55.726;37.566;2023-07-22T12:05:00;2.8;;;0.6;;
69706;SDS011;56975;55.726;37.566;2023-07-22T12:10:00;2.8;;;0.6;;
69706;SDS011;56975;55.726;37.566;2023-07-22T12:15:02;2.2;;;1.0;;
69706;SDS011;56975;55.726;37.566;2023-07-22T12:20:00;4.1;;;1.1;;
69706;SDS011;56975;55.726;37.566;2023-07-22T12:25:00;3.3;;;0.9;;
69706;SDS011;56975;55.726;37.566;2023-07-22T12:30:00;8.4;;;1.4;;
69706;SDS011;56975;55.726;37.566;2023-07-22T12:35:00;4.0;;;0.8;;
69706;SDS011;56975;55.726;37.566;2023-07-22T12:40:00;3.2;;;0.9;;
69706;SDS011;56975;55.726;37.566;2023-07-22T12:45:00;2.4;;;1.1;;
69706;SDS011;56975;55.726;37.566;2023-07-22T12:50:00;3.1;;;1.1;;
69706;SDS011;56975;55.726;37.566;2023-07-22T12:55:00;4.4;;;1.4;;
69706;SDS011;56975;55.726;37.566;2023-07-22T13:00:00;4.0;;;1.1;;
69706;SDS011;56975;55.726;37.566;2023-07-22T13:05:00;5.4;;;1.1;;
69706;SDS011;56975;55.726;37.566;2023-07-22T13:10:04;6.6;;;1.3;;
69706;SDS011;56975;55.726;37.566;2023-07-22T13:15:00;5.4;;;1.1;;
69706;SDS011;56975;55.726;37.566;2023-07-22T13:20:00;9.5;;;2.7;;
69706;SDS011;56975;55.726;37.566;2023-07-22T13:25:00;5.2;;;1.1;;
69706;SDS011;56975;55.726;37.566;2023-07-22T13:30:00;3.8;;;1.3;;
69706;SDS011;56975;55.726;37.566;2023-07-22T13:35:00;2.8;;;0.9;;
69706;SDS011;56975;55.726;37.566;2023-07-22T13:40:00;4.8;;;1.4;;
69706;SDS011;56975;55.726;37.566;2023-07-22T13:45:00;3.2;;;1.5;;
69706;SDS011;56975;55.726;37.566;2023-07-22T13:50:00;9.1;;;2.5;;
69706;SDS011;56975;55.726;37.566;2023-07-22T13:55:00;13.1;;;1.9;;
69706;SDS011;56975;55.726;37.566;2023-07-22T14:00:00;8.2;;;1.8;;
69706;SDS011;56975;55.726;37.566;2023-07-22T14:05:00;9.4;;;1.7;;
69706;SDS011;56975;55.726;37.566;2023-07-22T14:10:00;10.8;;;2.0;;
69706;SDS011;56975;55.726;37.566;2023-07-22T14:15:00;4.2;;;1.1;;
69706;SDS011;56975;55.726;37.566;2023-07-22T14:20:00;3.1;;;1.0;;
69706;SDS011;56975;55.726;37.566;2023-07-22T14:25:00;4.4;;;1.2;;
69706;SDS011;56975;55.726;37.566;2023-07-22T14:30:00;5.7;;;2.3;;
69706;SDS011;56975;55.726;37.566;2023-07-22T14:35:00;4.3;;;1.8;;
69706;SDS011;56975;55.726;37.566;2023-07-22T14:40:00;5.1;;;1.3;;
69706;SDS011;56975;55.726;37.566;2023-07-22T14:45:00;4.6;;;1.5;;
69706;SDS011;56975;55.726;37.566;2023-07-22T14:50:00;4.5;;;1.3;;
69706;SDS011;56975;55.726;37.566;2023-07-22T14:55:00;4.1;;;1.3;;
69706;SDS011;56975;55.726;37.566;2023-07-22T15:00:00;4.0;;;1.5;;
69706;SDS011;56975;55.726;37.566;2023-07-22T15:05:00;4.0;;;1.7;;
69706;SDS011;56975;55.726;37.566;2023-07-22T15:10:00;4.3;;;1.3;;
69706;SDS011;56975;55.726;37.566;2023-07-22T15:15:00;3.0;;;1.4;;
69706;SDS011;56975;55.726;37.566;2023-07-22T15:20:00;6.6;;;1.8;;
69706;SDS011;56975;55.726;37.566;2023-07-22T15:25:00;3.5;;;1.7;;
69706;SDS011;56975;55.726;37.566;2023-07-22T15:30:00;12.2;;;1.9;;
69706;SDS011;56975;55.726;37.566;2023-07-22T15:35:00;6.0;;;2.0;;
69706;SDS011;56975;55.726;37.566;2023-07-22T15:40:00;4.3;;;1.7;;
69706;SDS011;56975;55.726;37.566;2023-07-22T15:45:00;5.1;;;1.9;;
69706;SDS011;56975;55.726;37.566;2023-07-22T15:50:00;5.0;;;1.5;;
69706;SDS011;56975;55.726;37.566;2023-07-22T15:55:00;4.6;;;1.5;;
69706;SDS011;56975;55.726;37.566;2023-07-22T16:00:00;3.9;;;1.2;;
69706;SDS011;56975;55.726;37.566;2023-07-22T16:05:00;3.6;;;1.5;;
69706;SDS011;56975;55.726;37.566;2023-07-22T16:10:00;4.6;;;1.4;;
69706;SDS011;56975;55.726;37.566;2023-07-22T16:15:00;4.3;;;1.4;;
69706;SDS011;56975;55.726;37.566;2023-07-22T16:20:00;5.8;;;2.4;;
69706;SDS011;56975;55.726;37.566;2023-07-22T16:25:00;6.4;;;1.8;;
69706;SDS011;56975;55.726;37.566;2023-07-22T16:30:00;6.5;;;2.0;;
69706;SDS011;56975;55.726;37.566;2023-07-22T16:35:00;4.8;;;1.5;;
69706;SDS011;56975;55.726;37.566;2023-07-22T16:40:00;6.2;;;1.8;;
69706;SDS011;56975;55.726;37.566;2023-07-22T16:45:00;6.5;;;1.6;;
69706;SDS011;56975;55.726;37.566;2023-07-22T16:50:00;6.3;;;2.0;;
69706;SDS011;56975;55.726;37.566;2023-07-22T16:55:00;6.5;;;1.9;;
69706;SDS011;56975;55.726;37.566;2023-07-22T17:00:00;5.0;;;1.9;;
69706;SDS011;56975;55.726;37.566;2023-07-22T17:05:00;8.8;;;4.0;;
69706;SDS011;56975;55.726;37.566;2023-07-22T17:10:00;5.8;;;1.6;;
69706;SDS011;56975;55.726;37.566;2023-07-22T17:15:00;6.6;;;2.3;;
69706;SDS011;56975;55.726;37.566;2023-07-22T17:20:00;6.7;;;2.3;;
69706;SDS011;56975;55.726;37.566;2023-07-22T17:25:00;4.4;;;1.6;;
69706;SDS011;56975;55.726;37.566;2023-07-22T17:30:00;4.1;;;1.9;;
69706;SDS011;56975;55.726;37.566;2023-07-22T17:35:00;6.7;;;1.9;;
69706;SDS011;56975;55.726;37.566;2023-07-22T17:40:00;7.6;;;1.9;;
69706;SDS011;56975;55.726;37.566;2023-07-22T17:45:00;6.8;;;1.8;;
69706;SDS011;56975;55.726;37.566;2023-07-22T17:50:00;8.0;;;1.7;;
69706;SDS011;56975;55.726;37.566;2023-07-22T17:55:00;5.3;;;1.9;;
69706;SDS011;56975;55.726;37.566;2023-07-22T18:00:00;5.4;;;1.7;;
69706;SDS011;56975;55.726;37.566;2023-07-22T18:05:00;7.3;;;1.6;;
69706;SDS011;56975;55.726;37.566;2023-07-22T18:10:00;9.1;;;3.4;;
69706;SDS011;56975;55.726;37.566;2023-07-22T18:15:00;7.1;;;1.9;;
69706;SDS011;56975;55.726;37.566;2023-07-22T18:20:00;6.9;;;2.0;;
69706;SDS011;56975;55.726;37.566;2023-07-22T18:25:00;4.6;;;1.9;;
69706;SDS011;56975;55.726;37.566;2023-07-22T18:30:00;10.1;;;2.2;;
69706;SDS011;56975;55.726;37.566;2023-07-22T18:35:00;6.1;;;2.3;;
69706;SDS011;56975;55.726;37.566;2023-07-22T18:40:00;9.6;;;2.4;;
69706;SDS011;56975;55.726;37.566;2023-07-22T18:45:00;8.7;;;2.6;;
69706;SDS011;56975;55.726;37.566;2023-07-22T18:50:00;7.3;;;2.5;;
69706;SDS011;56975;55.726;37.566;2023-07-22T18:55:00;8.6;;;2.2;;
69706;SDS011;56975;55.726;37.566;2023-07-22T19:00:00;7.9;;;2.5;;
69706;SDS011;56975;55.726;37.566;2023-07-22T19:05:00;9.2;;;2.3;;
69706;SDS011;56975;55.726;37.566;2023-07-22T19:10:00;5.5;;;2.0;;
69706;SDS011;56975;55.726;37.566;2023-07-22T19:15:00;9.4;;;2.7;;
69706;SDS011;56975;55.726;37.566;2023-07-22T19:20:00;9.5;;;3.0;;
69706;SDS011;56975;55.726;37.566;2023-07-22T19:25:00;6.5;;;3.1;;
69706;SDS011;56975;55.726;37.566;2023-07-22T19:30:00;11.1;;;3.4;;
69706;SDS011;56975;55.726;37.566;2023-07-22T19:35:00;10.3;;;3.9;;
69706;SDS011;56975;55.726;37.566;2023-07-22T19:40:00;8.2;;;3.3;;
69706;SDS011;56975;55.726;37.566;2023-07-22T19:45:00;8.7;;;3.7;;
69706;SDS011;56975;55.726;37.566;2023-07-22T19:50:00;15.1;;;3.6;;
69706;SDS011;56975;55.726;37.566;2023-07-22T19:55:00;7.5;;;3.5;;
69706;SDS011;56975;55.726;37.566;2023-07-22T20:00:00;14.0;;;4.3;;
69706;SDS011;56975;55.726;37.566;2023-07-22T20:05:00;11.4;;;3.7;;
69706;SDS011;56975;55.726;37.566;2023-07-22T20:10:00;12.5;;;3.7;;
69706;SDS011;56975;55.726;37.566;2023-07-22T20:15:00;10.7;;;4.1;;
69706;SDS011;56975;55.726;37.566;2023-07-22T20:20:00;11.1;;;4.4;;
69706;SDS011;56975;55.726;37.566;2023-07-22T20:25:00;14.8;;;4.5;;
69706;SDS011;56975;55.726;37.566;2023-07-22T20:30:00;15.1;;;5.0;;
69706;SDS011;56975;55.726;37.566;2023-07-22T20:35:00;15.9;;;5.0;;
69706;SDS011;56975;55.726;37.566;2023-07-22T20:40:00;12.1;;;4.7;;
69706;SDS011;56975;55.726;37.566;2023-07-22T20:45:00;17.9;;;5.4;;
69706;SDS011;56975;55.726;37.566;2023-07-22T20:50:00;15.3;;;5.7;;
69706;SDS011;56975;55.726;37.566;2023-07-22T20:55:00;14.8;;;5.5;;
69706;SDS011;56975;55.726;37.566;2023-07-22T21:00:00;13.0;;;4.9;;
69706;SDS011;56975;55.726;37.566;2023-07-22T21:05:00;14.7;;;4.7;;
69706;SDS011;56975;55.726;37.566;2023-07-22T21:10:02;13.6;;;4.9;;
69706;SDS011;56975;55.726;37.566;2023-07-22T21:15:00;16.7;;;5.1;;
69706;SDS011;56975;55.726;37.566;2023-07-22T21:20:00;15.3;;;5.2;;
69706;SDS011;56975;55.726;37.566;2023-07-22T21:25:00;9.1;;;4.0;;
69706;SDS011;56975;55.726;37.566;2023-07-22T21:30:00;9.4;;;4.6;;
69706;SDS011;56975;55.726;37.566;2023-07-22T21:35:00;8.7;;;4.7;;
69706;SDS011;56975;55.726;37.566;2023-07-22T21:40:00;11.6;;;3.7;;
69706;SDS011;56975;55.726;37.566;2023-07-22T21:45:00;12.2;;;4.6;;
69706;SDS011;56975;55.726;37.566;2023-07-22T21:50:00;12.4;;;4.3;;
69706;SDS011;56975;55.726;37.566;2023-07-22T21:55:00;11.8;;;4.1;;
69706;SDS011;56975;55.726;37.566;2023-07-22T22:00:00;10.7;;;4.2;;
69706;SDS011;56975;55.726;37.566;2023-07-22T22:05:00;10.9;;;4.4;;
69706;SDS011;56975;55.726;37.566;2023-07-22T22:10:00;8.4;;;4.0;;
69706;SDS011;56975;55.726;37.566;2023-07-22T22:15:00;10.9;;;4.3;;
69706;SDS011;56975;55.726;37.566;2023-07-22T22:20:00;9.2;;;4.4;;
69706;SDS011;56975;55.726;37.566;2023-07-22T22:25:00;8.7;;;4.5;;
69706;SDS011;56975;55.726;37.566;2023-07-22T22:30:03;11.3;;;4.5;;
69706;SDS011;56975;55.726;37.566;2023-07-22T22:35:00;11.0;;;4.8;;
69706;SDS011;56975;55.726;37.566;2023-07-22T22:40:00;8.5;;;4.5;;
69706;SDS011;56975;55.726;37.566;2023-07-22T22:45:00;12.0;;;4.3;;
69706;SDS011;56975;55.726;37.566;2023-07-22T22:50:00;8.9;;;4.5;;
69706;SDS011;56975;55.726;37.566;2023-07-22T22:55:00;12.8;;;4.5;;
69706;SDS011;56975;55.726;37.566;2023-07-22T23:00:00;12.4;;;5.0;;
69706;SDS011;56975;55.726;37.566;2023-07-22T23:05:00;11.5;;;4.5;;
69706;SDS011;56975;55.726;37.566;2023-07-22T23:10:00;11.9;;;4.8;;
69706;SDS011;56975;55.726;37.566;2023-07-22T23:15:00;11.8;;;5.2;;
69706;SDS011;56975;55.726;37.566;2023-07-22T23:20:00;17.0;;;9.2;;
69706;SDS011;56975;55.726;37.566;2023-07-22T23:25:00;9.9;;;4.8;;
69706;SDS011;56975;55.726;37.566;2023-07-22T23:30:00;9.8;;;5.1;;
69706;SDS011;56975;55.726;37.566;2023-07-22T23:35:00;12.5;;;5.5;;
69706;SDS011;56975;55.726;37.566;2023-07-22T23:40:00;14.0;;;5.1;;
69706;SDS011;56975;55.726;37.566;2023-07-22T23:45:00;14.7;;;5.2;;
69706;SDS011;56975;55.726;37.566;2023-07-22T23:50:00;9.5;;;4.7;;
69706;SDS011;56975;55.726;37.566;2023-07-22T23:55:00;13.3;;;5.1;;
